createdAt,value
2019-03-17T00:00:32.969Z,99033.16
2019-03-17T00:01:15.995Z,99028.30
2019-03-17T00:01:57.125Z,99029.27
2019-03-17T00:02:29.562Z,99028.30
2019-03-17T00:03:05.402Z,99024.55
2019-03-17T00:03:40.818Z,99029.53
2019-03-17T00:04:16.540Z,99032.80
2019-03-17T00:04:52.327Z,99025.31
2019-03-17T00:05:27.832Z,99022.16
2019-03-17T00:06:03.269Z,99013.00
2019-03-17T00:06:38.695Z,99017.91
2019-03-17T00:07:14.193Z,99018.42
2019-03-17T00:07:49.703Z,99020.70
2019-03-17T00:08:25.902Z,99020.14
2019-03-17T00:09:01.334Z,99012.95
2019-03-17T00:09:36.768Z,99019.98
2019-03-17T00:10:12.607Z,99017.66
2019-03-17T00:10:48.666Z,99010.42
2019-03-17T00:11:24.098Z,99014.39
2019-03-17T00:11:59.832Z,99013.51
2019-03-17T00:12:35.238Z,99013.51
2019-03-17T00:13:10.678Z,99013.05
2019-03-17T00:13:46.132Z,99011.69
2019-03-17T00:14:21.889Z,99011.69
2019-03-17T00:15:05.382Z,99007.36
2019-03-17T00:15:34.426Z,99013.79
2019-03-17T00:16:10.152Z,99008.67
2019-03-17T00:16:45.571Z,98993.28
2019-03-17T00:17:21.018Z,98993.28
2019-03-17T00:17:56.870Z,99005.36
2019-03-17T00:18:32.774Z,99002.27
2019-03-17T00:19:08.216Z,99002.42
2019-03-17T00:19:44.364Z,99006.04
2019-03-17T00:20:19.834Z,99000.73
2019-03-17T00:20:55.329Z,99007.58
2019-03-17T00:21:31.074Z,99007.58
2019-03-17T00:22:06.498Z,99007.42
2019-03-17T00:22:41.952Z,99004.50
2019-03-17T00:23:17.450Z,99004.50
2019-03-17T00:23:52.995Z,99005.48
2019-03-17T00:24:28.471Z,98997.13
2019-03-17T00:25:09.711Z,99002.67
2019-03-17T00:25:41.748Z,99002.67
2019-03-17T00:26:17.179Z,98993.51
2019-03-17T00:26:52.588Z,98993.51
2019-03-17T00:27:28.107Z,98996.77
2019-03-17T00:28:03.640Z,98987.51
2019-03-17T00:28:39.181Z,98987.51
2019-03-17T00:29:14.602Z,98988.58
2019-03-17T00:29:50.829Z,98988.58
2019-03-17T00:30:27.999Z,98993.48
2019-03-17T00:31:03.409Z,98994.80
2019-03-17T00:31:39.702Z,98991.50
2019-03-17T00:32:15.164Z,98991.50
2019-03-17T00:32:51.222Z,98986.34
2019-03-17T00:33:27.038Z,98985.42
2019-03-17T00:34:03.111Z,98985.42
2019-03-17T00:34:44.036Z,98980.18
2019-03-17T00:35:15.790Z,98980.18
2019-03-17T00:35:51.399Z,98991.95
2019-03-17T00:36:27.958Z,98974.32
2019-03-17T00:37:03.411Z,98974.32
2019-03-17T00:37:39.253Z,98985.53
2019-03-17T00:38:14.720Z,98972.84
2019-03-17T00:38:55.447Z,98972.84
2019-03-17T00:39:33.963Z,98985.95
2019-03-17T00:40:09.765Z,98985.95
2019-03-17T00:40:45.269Z,98984.89
2019-03-17T00:41:21.354Z,98978.97
2019-03-17T00:41:57.135Z,98989.68
2019-03-17T00:42:33.206Z,98989.68
2019-03-17T00:43:09.045Z,98977.98
2019-03-17T00:43:44.970Z,98980.45
2019-03-17T00:44:20.584Z,98980.45
2019-03-17T00:44:56.348Z,98982.58
2019-03-17T00:45:32.313Z,98987.52
2019-03-17T00:46:08.032Z,98979.54
2019-03-17T00:46:43.557Z,98980.11
2019-03-17T00:47:18.994Z,98983.52
2019-03-17T00:47:55.144Z,98983.52
2019-03-17T00:48:31.153Z,98972.55
2019-03-17T00:49:06.595Z,98972.55
2019-03-17T00:49:42.598Z,98980.52
2019-03-17T00:50:19.651Z,98980.52
2019-03-17T00:50:55.708Z,98968.36
2019-03-17T00:51:31.641Z,98974.14
2019-03-17T00:52:07.809Z,98974.14
2019-03-17T00:52:43.464Z,98970.27
2019-03-17T00:53:19.363Z,98964.98
2019-03-17T00:53:55.191Z,98970.72
2019-03-17T00:54:30.957Z,98970.72
2019-03-17T00:55:07.675Z,98974.63
2019-03-17T00:55:43.101Z,98969.84
2019-03-17T00:56:18.978Z,98969.84
2019-03-17T00:56:54.873Z,98964.63
2019-03-17T00:57:30.582Z,98964.17
2019-03-17T00:58:06.792Z,98964.17
2019-03-17T00:58:42.245Z,98961.62
2019-03-17T00:59:18.617Z,98959.73
2019-03-17T00:59:54.467Z,98958.86
2019-03-17T01:00:31.038Z,98958.27
2019-03-17T01:01:06.920Z,98958.27
2019-03-17T01:01:42.336Z,98966.76
2019-03-17T01:02:18.044Z,98958.94
2019-03-17T01:02:53.641Z,98958.94
2019-03-17T01:03:29.097Z,98954.68
2019-03-17T01:04:05.093Z,98954.91
2019-03-17T01:04:41.324Z,98954.93
2019-03-17T01:05:17.507Z,98955.57
2019-03-17T01:05:53.347Z,98954.78
2019-03-17T01:06:29.153Z,98947.49
2019-03-17T01:07:04.613Z,98947.49
2019-03-17T01:07:40.329Z,98944.56
2019-03-17T01:08:16.220Z,98946.76
2019-03-17T01:08:52.336Z,98946.76
2019-03-17T01:09:28.129Z,98950.55
2019-03-17T01:10:03.563Z,98950.55
2019-03-17T01:10:39.344Z,98950.61
2019-03-17T01:11:15.117Z,98947.57
2019-03-17T01:11:50.546Z,98947.57
2019-03-17T01:12:26.531Z,98949.27
2019-03-17T01:13:02.050Z,98949.27
2019-03-17T01:13:38.363Z,98946.86
2019-03-17T01:14:13.817Z,98941.55
2019-03-17T01:14:49.655Z,98941.55
2019-03-17T01:15:25.145Z,98931.78
2019-03-17T01:16:00.858Z,98934.36
2019-03-17T01:16:36.380Z,98932.46
2019-03-17T01:17:11.799Z,98935.11
2019-03-17T01:17:47.277Z,98928.20
2019-03-17T01:18:22.708Z,98928.20
2019-03-17T01:18:58.124Z,98926.31
2019-03-17T01:19:33.877Z,98926.31
2019-03-17T01:20:09.351Z,98929.20
2019-03-17T01:20:44.760Z,98935.86
2019-03-17T01:21:21.172Z,98926.97
2019-03-17T01:21:56.595Z,98921.23
2019-03-17T01:22:32.013Z,98932.00
2019-03-17T01:23:07.438Z,98932.00
2019-03-17T01:23:43.220Z,98924.09
2019-03-17T01:24:18.708Z,98928.28
2019-03-17T01:24:54.501Z,98930.11
2019-03-17T01:25:30.336Z,98928.02
2019-03-17T01:26:06.022Z,98925.75
2019-03-17T01:26:41.783Z,98931.47
2019-03-17T01:27:17.252Z,98931.47
2019-03-17T01:27:52.724Z,98928.20
2019-03-17T01:28:28.145Z,98929.34
2019-03-17T01:29:03.824Z,98929.39
2019-03-17T01:29:39.256Z,98924.64
2019-03-17T01:30:17.316Z,98927.67
2019-03-17T01:30:52.796Z,98935.09
2019-03-17T01:31:28.206Z,98921.34
2019-03-17T01:32:03.982Z,98935.47
2019-03-17T01:32:39.377Z,98940.59
2019-03-17T01:33:15.198Z,98920.97
2019-03-17T01:33:50.647Z,98916.41
2019-03-17T01:34:26.127Z,98916.41
2019-03-17T01:35:09.020Z,98898.59
2019-03-17T01:35:38.682Z,98898.59
2019-03-17T01:36:14.117Z,98908.20
2019-03-17T01:36:49.899Z,98909.77
2019-03-17T01:37:25.362Z,98918.22
2019-03-17T01:38:00.795Z,98904.85
2019-03-17T01:38:36.240Z,98902.87
2019-03-17T01:39:11.657Z,98902.87
2019-03-17T01:39:47.202Z,98902.72
2019-03-17T01:40:23.317Z,98906.98
2019-03-17T01:40:59.073Z,98900.22
2019-03-17T01:41:34.941Z,98897.91
2019-03-17T01:42:10.790Z,98895.80
2019-03-17T01:42:46.928Z,98895.80
2019-03-17T01:43:22.337Z,98899.21
2019-03-17T01:43:57.901Z,98899.21
2019-03-17T01:44:33.361Z,98897.65
2019-03-17T01:45:09.689Z,98902.92
2019-03-17T01:45:45.224Z,98901.74
2019-03-17T01:46:20.699Z,98906.23
2019-03-17T01:46:56.125Z,98893.16
2019-03-17T01:47:31.901Z,98893.16
2019-03-17T01:48:07.325Z,98893.16
2019-03-17T01:48:43.075Z,98885.27
2019-03-17T01:49:18.659Z,98885.27
2019-03-17T01:49:54.601Z,98887.87
2019-03-17T01:50:30.129Z,98885.59
2019-03-17T01:51:05.587Z,98885.59
2019-03-17T01:51:41.268Z,98885.05
2019-03-17T01:52:16.704Z,98877.45
2019-03-17T01:52:52.507Z,98877.45
2019-03-17T01:53:27.931Z,98880.26
2019-03-17T01:54:03.366Z,98880.26
2019-03-17T01:54:39.152Z,98881.36
2019-03-17T01:55:15.009Z,98881.36
2019-03-17T01:55:50.739Z,98874.08
2019-03-17T01:56:26.179Z,98896.34
2019-03-17T01:57:02.020Z,98879.92
2019-03-17T01:57:37.526Z,98868.65
2019-03-17T01:58:13.055Z,98870.31
2019-03-17T01:58:48.586Z,98870.31
2019-03-17T01:59:24.046Z,98871.80
2019-03-17T01:59:59.561Z,98864.41
2019-03-17T02:00:35.543Z,98888.42
2019-03-17T02:01:11.931Z,98867.38
2019-03-17T02:01:47.530Z,98865.27
2019-03-17T02:02:23.506Z,98865.27
2019-03-17T02:02:58.958Z,98863.41
2019-03-17T02:03:35.402Z,98873.08
2019-03-17T02:04:10.835Z,98873.08
2019-03-17T02:04:47.865Z,98855.30
2019-03-17T02:05:23.324Z,98860.63
2019-03-17T02:05:58.745Z,98860.63
2019-03-17T02:06:34.527Z,98861.92
2019-03-17T02:07:10.219Z,98862.31
2019-03-17T02:07:45.714Z,98862.31
2019-03-17T02:08:21.214Z,98849.84
2019-03-17T02:08:57.227Z,98864.06
2019-03-17T02:09:32.762Z,98848.92
2019-03-17T02:10:08.621Z,98856.98
2019-03-17T02:10:44.365Z,98843.58
2019-03-17T02:11:19.802Z,98842.63
2019-03-17T02:11:55.240Z,98877.35
2019-03-17T02:12:30.658Z,98870.81
2019-03-17T02:13:06.381Z,98870.81
2019-03-17T02:13:41.831Z,98850.77
2019-03-17T02:14:17.395Z,98850.77
2019-03-17T02:14:52.816Z,98851.05
2019-03-17T02:15:28.327Z,98840.70
2019-03-17T02:16:04.189Z,98846.61
2019-03-17T02:16:39.635Z,98849.36
2019-03-17T02:17:15.378Z,98835.05
2019-03-17T02:17:50.855Z,98835.05
2019-03-17T02:18:26.319Z,98864.58
2019-03-17T02:19:01.759Z,98832.84
2019-03-17T02:19:37.166Z,98832.84
2019-03-17T02:20:12.600Z,98825.79
2019-03-17T02:20:48.109Z,98826.36
2019-03-17T02:21:23.561Z,98838.25
2019-03-17T02:21:59.430Z,98834.84
2019-03-17T02:22:35.095Z,98867.81
2019-03-17T02:23:10.805Z,98867.81
2019-03-17T02:23:46.213Z,98821.91
2019-03-17T02:24:21.897Z,98835.31
2019-03-17T02:24:57.559Z,98829.84
2019-03-17T02:25:32.980Z,98829.84
2019-03-17T02:26:08.758Z,98845.53
2019-03-17T02:26:44.688Z,98825.52
2019-03-17T02:27:20.509Z,98831.86
2019-03-17T02:27:56.349Z,98847.94
2019-03-17T02:28:31.877Z,98847.94
2019-03-17T02:29:07.540Z,98828.63
2019-03-17T02:29:42.960Z,98828.55
2019-03-17T02:30:18.509Z,98828.55
2019-03-17T02:30:54.361Z,98823.17
2019-03-17T02:31:29.781Z,98824.09
2019-03-17T02:32:05.200Z,98832.87
2019-03-17T02:32:40.661Z,98842.09
2019-03-17T02:33:16.126Z,98834.87
2019-03-17T02:33:51.597Z,98841.64
2019-03-17T02:34:27.021Z,98841.64
2019-03-17T02:35:02.447Z,98837.94
2019-03-17T02:35:39.978Z,98829.98
2019-03-17T02:36:15.021Z,98829.98
2019-03-17T02:36:50.587Z,98840.05
2019-03-17T02:37:26.351Z,98827.86
2019-03-17T02:38:02.125Z,98827.86
2019-03-17T02:38:37.550Z,98841.99
2019-03-17T02:39:13.053Z,98826.48
2019-03-17T02:39:48.873Z,98827.70
2019-03-17T02:40:24.342Z,98827.70
2019-03-17T02:40:59.754Z,98832.24
2019-03-17T02:41:35.680Z,98827.99
2019-03-17T02:42:11.464Z,98824.74
2019-03-17T02:42:46.935Z,98829.53
2019-03-17T02:43:22.746Z,98828.16
2019-03-17T02:43:58.160Z,98831.92
2019-03-17T02:44:33.592Z,98831.92
2019-03-17T02:45:09.839Z,98824.55
2019-03-17T02:45:45.650Z,98824.55
2019-03-17T02:46:21.972Z,98819.66
2019-03-17T02:46:57.408Z,98819.66
2019-03-17T02:47:33.271Z,98817.69
2019-03-17T02:48:09.173Z,98830.37
2019-03-17T02:48:44.623Z,98831.58
2019-03-17T02:49:20.085Z,98822.16
2019-03-17T02:49:55.532Z,98830.37
2019-03-17T02:50:31.026Z,98824.37
2019-03-17T02:51:06.443Z,98838.88
2019-03-17T02:51:42.643Z,98838.88
2019-03-17T02:52:18.502Z,98827.25
2019-03-17T02:52:53.935Z,98840.16
2019-03-17T02:53:30.128Z,98839.78
2019-03-17T02:54:05.971Z,98828.16
2019-03-17T02:54:41.412Z,98823.38
2019-03-17T02:55:17.229Z,98843.28
2019-03-17T02:55:53.036Z,98843.28
2019-03-17T02:56:28.451Z,98814.57
2019-03-17T02:57:04.324Z,98826.28
2019-03-17T02:57:39.742Z,98841.13
2019-03-17T02:58:15.596Z,98817.53
2019-03-17T02:58:51.038Z,98822.22
2019-03-17T02:59:26.847Z,98824.80
2019-03-17T03:00:02.274Z,98824.80
2019-03-17T03:00:38.146Z,98815.30
2019-03-17T03:01:13.842Z,98817.29
2019-03-17T03:01:49.284Z,98824.05
2019-03-17T03:02:24.723Z,98819.26
2019-03-17T03:03:00.478Z,98819.26
2019-03-17T03:03:36.026Z,98821.73
2019-03-17T03:04:11.831Z,98821.73
2019-03-17T03:04:47.255Z,98807.34
2019-03-17T03:05:22.717Z,98811.78
2019-03-17T03:05:58.117Z,98814.63
2019-03-17T03:06:33.531Z,98820.63
2019-03-17T03:07:09.708Z,98820.63
2019-03-17T03:07:45.508Z,98811.23
2019-03-17T03:08:21.379Z,98810.33
2019-03-17T03:08:56.806Z,98810.33
2019-03-17T03:09:32.231Z,98808.84
2019-03-17T03:10:07.638Z,98814.41
2019-03-17T03:10:43.067Z,98814.92
2019-03-17T03:11:18.528Z,98816.59
2019-03-17T03:11:53.960Z,98821.11
2019-03-17T03:12:29.402Z,98822.22
2019-03-17T03:13:04.821Z,98816.52
2019-03-17T03:13:40.920Z,98811.51
2019-03-17T03:14:16.347Z,98814.95
2019-03-17T03:14:52.129Z,98814.95
2019-03-17T03:15:27.533Z,98828.30
2019-03-17T03:16:05.579Z,98809.06
2019-03-17T03:16:40.752Z,98809.06
2019-03-17T03:17:16.542Z,98823.56
2019-03-17T03:17:52.040Z,98814.36
2019-03-17T03:18:27.768Z,98814.36
2019-03-17T03:19:03.204Z,98822.34
2019-03-17T03:19:38.651Z,98825.17
2019-03-17T03:20:14.076Z,98825.17
2019-03-17T03:20:49.554Z,98821.73
2019-03-17T03:21:25.037Z,98822.00
2019-03-17T03:22:00.447Z,98819.07
2019-03-17T03:22:35.880Z,98819.07
2019-03-17T03:23:11.309Z,98818.80
2019-03-17T03:23:47.082Z,98809.28
2019-03-17T03:24:22.602Z,98812.31
2019-03-17T03:24:58.035Z,98813.61
2019-03-17T03:25:33.513Z,98813.61
2019-03-17T03:26:08.938Z,98811.19
2019-03-17T03:26:44.352Z,98827.05
2019-03-17T03:27:20.414Z,98817.56
2019-03-17T03:27:55.846Z,98817.56
2019-03-17T03:28:31.346Z,98802.06
2019-03-17T03:29:07.289Z,98821.73
2019-03-17T03:29:43.248Z,98800.16
2019-03-17T03:30:21.922Z,98810.48
2019-03-17T03:30:57.344Z,98810.48
2019-03-17T03:31:33.189Z,98803.20
2019-03-17T03:32:08.709Z,98803.20
2019-03-17T03:32:44.668Z,98797.90
2019-03-17T03:33:20.194Z,98804.81
2019-03-17T03:33:55.799Z,98804.81
2019-03-17T03:34:31.315Z,98810.89
2019-03-17T03:35:07.429Z,98809.20
2019-03-17T03:35:43.141Z,98809.20
2019-03-17T03:36:18.612Z,98811.05
2019-03-17T03:36:54.041Z,98806.64
2019-03-17T03:37:30.255Z,98808.03
2019-03-17T03:38:05.677Z,98822.52
2019-03-17T03:38:41.122Z,98822.52
2019-03-17T03:39:17.048Z,98812.64
2019-03-17T03:39:52.492Z,98812.72
2019-03-17T03:40:27.909Z,98816.30
2019-03-17T03:41:03.427Z,98829.40
2019-03-17T03:41:39.255Z,98818.80
2019-03-17T03:42:15.109Z,98814.77
2019-03-17T03:42:50.626Z,98811.34
2019-03-17T03:43:26.346Z,98811.34
2019-03-17T03:44:01.820Z,98815.38
2019-03-17T03:44:37.530Z,98814.47
2019-03-17T03:45:13.071Z,98814.47
2019-03-17T03:45:48.799Z,98802.63
2019-03-17T03:46:24.217Z,98808.47
2019-03-17T03:46:59.616Z,98805.78
2019-03-17T03:47:35.040Z,98802.63
2019-03-17T03:48:10.456Z,98814.81
2019-03-17T03:48:45.886Z,98804.75
2019-03-17T03:49:21.374Z,98804.75
2019-03-17T03:49:57.412Z,98813.13
2019-03-17T03:50:32.836Z,98817.91
2019-03-17T03:51:08.841Z,98817.91
2019-03-17T03:51:44.562Z,98803.70
2019-03-17T03:52:20.041Z,98810.54
2019-03-17T03:52:55.492Z,98799.59
2019-03-17T03:53:30.918Z,98808.77
2019-03-17T03:54:06.353Z,98795.45
2019-03-17T03:54:42.145Z,98796.74
2019-03-17T03:55:17.885Z,98791.30
2019-03-17T03:55:53.764Z,98791.30
2019-03-17T03:56:29.190Z,98793.59
2019-03-17T03:57:04.894Z,98802.58
2019-03-17T03:57:40.312Z,98802.58
2019-03-17T03:58:15.799Z,98799.27
2019-03-17T03:58:51.668Z,98801.95
2019-03-17T03:59:27.454Z,98801.95
2019-03-17T04:00:03.235Z,98791.70
2019-03-17T04:00:39.084Z,98809.38
2019-03-17T04:01:14.768Z,98809.38
2019-03-17T04:01:50.254Z,98808.66
2019-03-17T04:02:26.231Z,98808.66
2019-03-17T04:03:01.664Z,98790.58
2019-03-17T04:03:37.463Z,98791.23
2019-03-17T04:04:13.425Z,98797.60
2019-03-17T04:04:48.978Z,98790.69
2019-03-17T04:05:24.626Z,98803.48
2019-03-17T04:06:00.057Z,98811.16
2019-03-17T04:06:35.833Z,98789.86
2019-03-17T04:07:12.277Z,98807.02
2019-03-17T04:07:47.745Z,98800.07
2019-03-17T04:08:23.548Z,98800.07
2019-03-17T04:08:59.247Z,98787.65
2019-03-17T04:09:35.112Z,98787.16
2019-03-17T04:10:11.101Z,98799.89
2019-03-17T04:10:46.553Z,98791.30
2019-03-17T04:11:22.254Z,98797.03
2019-03-17T04:11:58.021Z,98789.66
2019-03-17T04:12:33.430Z,98786.81
2019-03-17T04:13:08.858Z,98788.19
2019-03-17T04:13:44.750Z,98792.81
2019-03-17T04:14:20.996Z,98792.81
2019-03-17T04:14:56.670Z,98792.62
2019-03-17T04:15:32.488Z,98792.62
2019-03-17T04:16:07.993Z,98798.54
2019-03-17T04:16:43.485Z,98795.66
2019-03-17T04:17:18.992Z,98793.91
2019-03-17T04:17:54.965Z,98787.16
2019-03-17T04:18:30.369Z,98790.12
2019-03-17T04:19:05.877Z,98790.12
2019-03-17T04:19:41.312Z,98784.31
2019-03-17T04:20:17.171Z,98785.25
2019-03-17T04:20:52.570Z,98790.23
2019-03-17T04:21:28.081Z,98787.65
2019-03-17T04:22:03.873Z,98814.66
2019-03-17T04:22:39.294Z,98800.37
2019-03-17T04:23:14.709Z,98792.00
2019-03-17T04:23:50.928Z,98772.41
2019-03-17T04:24:26.634Z,98800.20
2019-03-17T04:25:02.111Z,98792.16
2019-03-17T04:25:37.814Z,98789.74
2019-03-17T04:26:13.234Z,98785.06
2019-03-17T04:26:48.659Z,98785.06
2019-03-17T04:27:24.090Z,98788.45
2019-03-17T04:27:59.989Z,98776.94
2019-03-17T04:28:35.416Z,98791.33
2019-03-17T04:29:10.833Z,98791.33
2019-03-17T04:29:46.312Z,98801.58
2019-03-17T04:30:21.745Z,98805.75
2019-03-17T04:30:58.175Z,98782.66
2019-03-17T04:31:33.595Z,98780.00
2019-03-17T04:32:09.444Z,98785.06
2019-03-17T04:32:44.874Z,98795.18
2019-03-17T04:33:20.297Z,98781.35
2019-03-17T04:33:55.740Z,98782.80
2019-03-17T04:34:31.694Z,98770.92
2019-03-17T04:35:07.612Z,98779.58
2019-03-17T04:35:43.448Z,98779.58
2019-03-17T04:36:19.213Z,98775.03
2019-03-17T04:36:54.656Z,98775.03
2019-03-17T04:37:30.109Z,98788.42
2019-03-17T04:38:05.542Z,98791.13
2019-03-17T04:38:43.733Z,98798.87
2019-03-17T04:39:18.206Z,98774.59
2019-03-17T04:39:53.678Z,98790.09
2019-03-17T04:40:29.129Z,98806.70
2019-03-17T04:41:05.325Z,98781.81
2019-03-17T04:41:40.758Z,98770.94
2019-03-17T04:42:16.549Z,98799.00
2019-03-17T04:42:51.981Z,98777.34
2019-03-17T04:43:27.510Z,98782.77
2019-03-17T04:44:02.940Z,98791.16
2019-03-17T04:44:38.393Z,98773.63
2019-03-17T04:45:14.208Z,98773.44
2019-03-17T04:45:49.717Z,98783.20
2019-03-17T04:46:25.155Z,98778.04
2019-03-17T04:47:00.566Z,98779.69
2019-03-17T04:47:36.070Z,98779.79
2019-03-17T04:48:11.507Z,98779.79
2019-03-17T04:48:47.149Z,98778.77
2019-03-17T04:49:22.699Z,98780.34
2019-03-17T04:49:58.522Z,98785.95
2019-03-17T04:50:34.041Z,98773.95
2019-03-17T04:51:09.474Z,98761.50
2019-03-17T04:51:44.907Z,98761.50
2019-03-17T04:52:20.720Z,98777.00
2019-03-17T04:52:56.861Z,98786.03
2019-03-17T04:53:32.601Z,98775.44
2019-03-17T04:54:08.394Z,98769.52
2019-03-17T04:54:43.911Z,98778.09
2019-03-17T04:55:19.403Z,98777.31
2019-03-17T04:55:55.283Z,98777.31
2019-03-17T04:56:31.115Z,98783.41
2019-03-17T04:57:06.542Z,98775.91
2019-03-17T04:57:41.970Z,98779.66
2019-03-17T04:58:17.938Z,98779.66
2019-03-17T04:58:53.838Z,98766.75
2019-03-17T04:59:29.910Z,98783.23
2019-03-17T05:00:05.842Z,98782.80
2019-03-17T05:00:41.595Z,98778.39
2019-03-17T05:01:17.025Z,98773.98
2019-03-17T05:01:52.878Z,98784.12
2019-03-17T05:02:28.717Z,98782.66
2019-03-17T05:03:04.465Z,98773.70
2019-03-17T05:03:39.876Z,98766.48
2019-03-17T05:04:15.677Z,98777.10
2019-03-17T05:04:51.552Z,98776.46
2019-03-17T05:05:27.136Z,98776.46
2019-03-17T05:06:02.560Z,98777.53
2019-03-17T05:06:37.973Z,98780.50
2019-03-17T05:07:13.720Z,98788.70
2019-03-17T05:07:49.225Z,98786.58
2019-03-17T05:08:24.692Z,98788.62
2019-03-17T05:09:00.124Z,98778.21
2019-03-17T05:09:35.540Z,98778.21
2019-03-17T05:10:11.006Z,98783.91
2019-03-17T05:10:46.478Z,98791.13
2019-03-17T05:11:21.919Z,98791.13
2019-03-17T05:11:57.393Z,98771.56
2019-03-17T05:12:32.928Z,98792.59
2019-03-17T05:13:08.680Z,98792.59
2019-03-17T05:13:44.475Z,98789.39
2019-03-17T05:14:19.954Z,98773.98
2019-03-17T05:14:55.507Z,98776.55
2019-03-17T05:15:31.236Z,98776.55
2019-03-17T05:16:06.749Z,98796.02
2019-03-17T05:16:42.576Z,98779.58
2019-03-17T05:17:18.165Z,98779.50
2019-03-17T05:17:53.609Z,98786.59
2019-03-17T05:18:29.342Z,98786.59
2019-03-17T05:19:05.061Z,98799.34
2019-03-17T05:19:40.517Z,98791.30
2019-03-17T05:20:17.181Z,98791.30
2019-03-17T05:20:53.002Z,98790.55
2019-03-17T05:21:28.423Z,98785.95
2019-03-17T05:22:03.846Z,98785.28
2019-03-17T05:22:39.287Z,98785.28
2019-03-17T05:23:15.936Z,98791.17
2019-03-17T05:23:52.168Z,98789.91
2019-03-17T05:24:27.593Z,98791.63
2019-03-17T05:25:03.432Z,98793.16
2019-03-17T05:25:38.870Z,98787.38
2019-03-17T05:26:15.180Z,98781.69
2019-03-17T05:26:51.198Z,98781.69
2019-03-17T05:27:26.631Z,98779.18
2019-03-17T05:28:02.054Z,98787.36
2019-03-17T05:28:37.480Z,98787.36
2019-03-17T05:29:13.180Z,98793.81
2019-03-17T05:29:48.720Z,98783.38
2019-03-17T05:30:24.242Z,98793.59
2019-03-17T05:30:59.978Z,98787.59
2019-03-17T05:31:35.740Z,98815.11
2019-03-17T05:32:11.157Z,98783.21
2019-03-17T05:32:46.898Z,98793.30
2019-03-17T05:33:22.351Z,98795.88
2019-03-17T05:33:57.863Z,98801.77
2019-03-17T05:34:33.627Z,98792.92
2019-03-17T05:35:09.045Z,98793.54
2019-03-17T05:35:44.479Z,98791.03
2019-03-17T05:36:19.915Z,98799.80
2019-03-17T05:37:05.495Z,98802.12
2019-03-17T05:37:32.605Z,98815.78
2019-03-17T05:38:08.021Z,98800.59
2019-03-17T05:38:43.994Z,98801.69
2019-03-17T05:39:19.744Z,98801.53
2019-03-17T05:39:55.497Z,98816.80
2019-03-17T05:40:31.222Z,98815.44
2019-03-17T05:41:06.960Z,98790.45
2019-03-17T05:41:42.377Z,98795.31
2019-03-17T05:42:18.162Z,98791.17
2019-03-17T05:42:54.045Z,98790.27
2019-03-17T05:43:29.448Z,98787.68
2019-03-17T05:44:05.251Z,98801.34
2019-03-17T05:44:40.995Z,98788.08
2019-03-17T05:45:16.420Z,98789.27
2019-03-17T05:45:51.882Z,98789.27
2019-03-17T05:46:27.601Z,98788.54
2019-03-17T05:47:03.116Z,98790.66
2019-03-17T05:47:38.551Z,98781.89
2019-03-17T05:48:14.320Z,98792.59
2019-03-17T05:48:50.933Z,98796.95
2019-03-17T05:49:26.404Z,98795.28
2019-03-17T05:50:02.181Z,98807.28
2019-03-17T05:50:37.959Z,98786.54
2019-03-17T05:51:13.481Z,98796.41
2019-03-17T05:51:48.965Z,98794.13
2019-03-17T05:52:24.428Z,98794.13
2019-03-17T05:52:59.848Z,98796.59
2019-03-17T05:53:35.576Z,98821.43
2019-03-17T05:54:11.426Z,98796.27
2019-03-17T05:54:46.877Z,98797.19
2019-03-17T05:55:22.346Z,98793.67
2019-03-17T05:55:57.837Z,98805.39
2019-03-17T05:56:34.023Z,98803.19
2019-03-17T05:57:10.222Z,98799.12
2019-03-17T05:57:46.031Z,98799.12
2019-03-17T05:58:21.500Z,98802.61
2019-03-17T05:58:57.055Z,98790.23
2019-03-17T05:59:32.478Z,98788.33
2019-03-17T06:00:09.512Z,98794.52
2019-03-17T06:00:44.975Z,98790.45
2019-03-17T06:01:20.730Z,98807.95
2019-03-17T06:01:56.228Z,98796.91
2019-03-17T06:02:31.666Z,98790.64
2019-03-17T06:03:07.462Z,98820.41
2019-03-17T06:03:42.927Z,98814.95
2019-03-17T06:04:18.395Z,98789.29
2019-03-17T06:04:53.852Z,98803.70
2019-03-17T06:05:29.392Z,98805.12
2019-03-17T06:06:04.906Z,98797.37
2019-03-17T06:06:40.812Z,98801.11
2019-03-17T06:07:18.846Z,98794.33
2019-03-17T06:07:53.777Z,98774.02
2019-03-17T06:08:29.313Z,98795.41
2019-03-17T06:09:06.427Z,98783.50
2019-03-17T06:09:41.846Z,98783.50
2019-03-17T06:10:19.492Z,98780.73
2019-03-17T06:10:54.985Z,98796.80
2019-03-17T06:11:30.488Z,98778.23
2019-03-17T06:12:05.910Z,98778.50
2019-03-17T06:12:41.635Z,98796.34
2019-03-17T06:13:17.411Z,98794.59
2019-03-17T06:13:52.862Z,98787.75
2019-03-17T06:14:28.277Z,98803.42
2019-03-17T06:15:03.700Z,98803.42
2019-03-17T06:15:39.534Z,98784.52
2019-03-17T06:16:15.240Z,98786.54
2019-03-17T06:16:50.851Z,98797.71
2019-03-17T06:17:26.277Z,98776.86
2019-03-17T06:18:02.128Z,98795.50
2019-03-17T06:18:37.552Z,98800.30
2019-03-17T06:19:13.359Z,98792.46
2019-03-17T06:19:48.822Z,98790.14
2019-03-17T06:20:24.318Z,98774.67
2019-03-17T06:20:59.772Z,98774.67
2019-03-17T06:21:35.201Z,98791.94
2019-03-17T06:22:10.976Z,98789.27
2019-03-17T06:22:46.416Z,98780.86
2019-03-17T06:23:21.895Z,98785.86
2019-03-17T06:23:58.054Z,98829.23
2019-03-17T06:24:34.023Z,98785.86
2019-03-17T06:25:09.521Z,98784.73
2019-03-17T06:25:44.970Z,98784.73
2019-03-17T06:26:20.822Z,98776.69
2019-03-17T06:26:56.552Z,98788.53
2019-03-17T06:27:31.966Z,98788.53
2019-03-17T06:28:07.391Z,98777.45
2019-03-17T06:28:43.158Z,98795.17
2019-03-17T06:29:19.187Z,98795.17
2019-03-17T06:29:54.630Z,98786.69
2019-03-17T06:30:30.057Z,98807.18
2019-03-17T06:31:05.575Z,98806.25
2019-03-17T06:31:40.987Z,98802.38
2019-03-17T06:32:16.701Z,98802.73
2019-03-17T06:32:52.255Z,98796.75
2019-03-17T06:33:27.687Z,98796.75
2019-03-17T06:34:03.136Z,98805.50
2019-03-17T06:34:38.626Z,98795.98
2019-03-17T06:35:14.411Z,98810.03
2019-03-17T06:35:49.903Z,98796.08
2019-03-17T06:36:25.323Z,98782.44
2019-03-17T06:37:00.747Z,98806.08
2019-03-17T06:37:36.522Z,98793.95
2019-03-17T06:38:12.251Z,98797.29
2019-03-17T06:38:48.202Z,98788.78
2019-03-17T06:39:23.633Z,98794.16
2019-03-17T06:39:59.067Z,98797.58
2019-03-17T06:40:34.494Z,98797.58
2019-03-17T06:41:09.959Z,98797.75
2019-03-17T06:41:45.380Z,98797.75
2019-03-17T06:42:20.842Z,98791.94
2019-03-17T06:42:56.263Z,98812.78
2019-03-17T06:43:31.685Z,98812.98
2019-03-17T06:44:07.407Z,98823.88
2019-03-17T06:44:43.146Z,98824.33
2019-03-17T06:45:18.896Z,98816.76
2019-03-17T06:45:54.705Z,98816.76
2019-03-17T06:46:30.555Z,98806.08
2019-03-17T06:47:06.101Z,98816.51
2019-03-17T06:47:41.820Z,98821.92
2019-03-17T06:48:17.291Z,98830.80
2019-03-17T06:48:53.084Z,98810.28
2019-03-17T06:49:28.874Z,98824.25
2019-03-17T06:50:04.806Z,98824.25
2019-03-17T06:50:40.595Z,98814.17
2019-03-17T06:51:16.481Z,98826.82
2019-03-17T06:51:51.977Z,98826.82
2019-03-17T06:52:27.888Z,98836.86
2019-03-17T06:53:03.437Z,98834.84
2019-03-17T06:53:38.935Z,98826.07
2019-03-17T06:54:14.346Z,98834.37
2019-03-17T06:54:50.232Z,98834.37
2019-03-17T06:55:25.675Z,98840.58
2019-03-17T06:56:01.143Z,98846.39
2019-03-17T06:56:36.898Z,98838.07
2019-03-17T06:57:12.689Z,98844.62
2019-03-17T06:57:48.602Z,98837.03
2019-03-17T06:58:25.002Z,98835.95
2019-03-17T06:59:00.518Z,98844.99
2019-03-17T06:59:36.367Z,98844.99